sensor_id;sensor_type;location;lat;lon;timestamp;P1;durP1;ratioP1;P2;durP2;ratioP2
51485;SDS011;37565;51.352;6.412;2022-08-30T00:02:25;39.35;;;27.65;;
51485;SDS011;37565;51.352;6.412;2022-08-30T00:04:53;41.22;;;27.38;;
51485;SDS011;37565;51.352;6.412;2022-08-30T00:07:22;42.25;;;27.67;;
51485;SDS011;37565;51.352;6.412;2022-08-30T00:09:52;41.83;;;27.05;;
51485;SDS011;37565;51.352;6.412;2022-08-30T00:12:20;42.33;;;28.08;;
51485;SDS011;37565;51.352;6.412;2022-08-30T00:14:48;40.17;;;26.70;;
51485;SDS011;37565;51.352;6.412;2022-08-30T00:17:16;39.25;;;26.38;;
51485;SDS011;37565;51.352;6.412;2022-08-30T00:19:46;38.67;;;27.08;;
51485;SDS011;37565;51.352;6.412;2022-08-30T00:22:14;39.38;;;26.33;;
51485;SDS011;37565;51.352;6.412;2022-08-30T00:24:42;37.20;;;24.98;;
51485;SDS011;37565;51.352;6.412;2022-08-30T00:27:10;33.03;;;24.25;;
51485;SDS011;37565;51.352;6.412;2022-08-30T00:29:39;35.83;;;24.00;;
51485;SDS011;37565;51.352;6.412;2022-08-30T00:32:07;34.92;;;24.25;;
51485;SDS011;37565;51.352;6.412;2022-08-30T00:34:35;35.97;;;25.90;;
51485;SDS011;37565;51.352;6.412;2022-08-30T00:37:04;33.35;;;23.70;;
51485;SDS011;37565;51.352;6.412;2022-08-30T00:39:32;35.88;;;24.48;;
51485;SDS011;37565;51.352;6.412;2022-08-30T00:42:00;32.67;;;24.35;;
51485;SDS011;37565;51.352;6.412;2022-08-30T00:44:28;36.58;;;24.35;;
51485;SDS011;37565;51.352;6.412;2022-08-30T00:46:56;34.88;;;24.77;;
51485;SDS011;37565;51.352;6.412;2022-08-30T00:49:24;33.80;;;22.63;;
51485;SDS011;37565;51.352;6.412;2022-08-30T00:51:52;35.92;;;23.85;;
51485;SDS011;37565;51.352;6.412;2022-08-30T00:54:22;34.10;;;24.40;;
51485;SDS011;37565;51.352;6.412;2022-08-30T00:56:52;33.75;;;22.63;;
51485;SDS011;37565;51.352;6.412;2022-08-30T00:59:20;32.92;;;22.92;;
51485;SDS011;37565;51.352;6.412;2022-08-30T01:01:50;31.30;;;21.52;;
51485;SDS011;37565;51.352;6.412;2022-08-30T01:04:19;33.13;;;22.80;;
51485;SDS011;37565;51.352;6.412;2022-08-30T01:06:50;31.35;;;22.33;;
51485;SDS011;37565;51.352;6.412;2022-08-30T01:09:20;34.05;;;22.40;;
51485;SDS011;37565;51.352;6.412;2022-08-30T01:11:50;29.98;;;20.73;;
51485;SDS011;37565;51.352;6.412;2022-08-30T01:14:18;28.52;;;19.17;;
51485;SDS011;37565;51.352;6.412;2022-08-30T01:16:51;24.88;;;18.45;;
51485;SDS011;37565;51.352;6.412;2022-08-30T01:19:26;26.25;;;19.63;;
51485;SDS011;37565;51.352;6.412;2022-08-30T01:22:03;24.70;;;18.08;;
51485;SDS011;37565;51.352;6.412;2022-08-30T01:27:05;29.15;;;18.40;;
51485;SDS011;37565;51.352;6.412;2022-08-30T01:29:33;24.85;;;17.52;;
51485;SDS011;37565;51.352;6.412;2022-08-30T01:32:04;25.08;;;18.25;;
51485;SDS011;37565;51.352;6.412;2022-08-30T01:34:33;23.98;;;16.15;;
51485;SDS011;37565;51.352;6.412;2022-08-30T01:37:00;22.95;;;16.52;;
51485;SDS011;37565;51.352;6.412;2022-08-30T01:39:28;21.42;;;15.40;;
51485;SDS011;37565;51.352;6.412;2022-08-30T01:41:59;22.35;;;16.20;;
51485;SDS011;37565;51.352;6.412;2022-08-30T01:44:28;21.30;;;14.88;;
51485;SDS011;37565;51.352;6.412;2022-08-30T01:46:56;19.40;;;14.15;;
51485;SDS011;37565;51.352;6.412;2022-08-30T01:49:26;18.83;;;13.85;;
51485;SDS011;37565;51.352;6.412;2022-08-30T01:51:54;19.48;;;13.68;;
51485;SDS011;37565;51.352;6.412;2022-08-30T01:54:26;22.70;;;13.90;;
51485;SDS011;37565;51.352;6.412;2022-08-30T01:57:05;17.33;;;12.00;;
51485;SDS011;37565;51.352;6.412;2022-08-30T01:59:35;15.45;;;12.55;;
51485;SDS011;37565;51.352;6.412;2022-08-30T02:02:05;18.35;;;12.48;;
51485;SDS011;37565;51.352;6.412;2022-08-30T02:04:34;20.50;;;12.43;;
51485;SDS011;37565;51.352;6.412;2022-08-30T02:07:02;18.02;;;12.50;;
51485;SDS011;37565;51.352;6.412;2022-08-30T02:09:31;15.15;;;11.55;;
51485;SDS011;37565;51.352;6.412;2022-08-30T02:11:59;15.05;;;11.32;;
51485;SDS011;37565;51.352;6.412;2022-08-30T02:14:28;14.85;;;10.57;;
51485;SDS011;37565;51.352;6.412;2022-08-30T02:16:56;14.60;;;10.52;;
51485;SDS011;37565;51.352;6.412;2022-08-30T02:19:24;19.88;;;9.77;;
51485;SDS011;37565;51.352;6.412;2022-08-30T02:21:52;11.65;;;9.02;;
51485;SDS011;37565;51.352;6.412;2022-08-30T02:24:20;11.88;;;9.02;;
51485;SDS011;37565;51.352;6.412;2022-08-30T02:26:49;12.20;;;9.18;;
51485;SDS011;37565;51.352;6.412;2022-08-30T02:29:18;13.60;;;9.02;;
51485;SDS011;37565;51.352;6.412;2022-08-30T02:31:48;12.40;;;9.25;;
51485;SDS011;37565;51.352;6.412;2022-08-30T02:34:16;12.27;;;8.95;;
51485;SDS011;37565;51.352;6.412;2022-08-30T02:36:45;11.32;;;8.15;;
51485;SDS011;37565;51.352;6.412;2022-08-30T02:39:13;12.98;;;8.27;;
51485;SDS011;37565;51.352;6.412;2022-08-30T02:41:41;8.50;;;6.38;;
51485;SDS011;37565;51.352;6.412;2022-08-30T02:44:09;10.35;;;7.20;;
51485;SDS011;37565;51.352;6.412;2022-08-30T02:46:38;9.38;;;7.13;;
51485;SDS011;37565;51.352;6.412;2022-08-30T02:49:07;9.27;;;7.40;;
51485;SDS011;37565;51.352;6.412;2022-08-30T02:51:56;7.57;;;6.65;;
51485;SDS011;37565;51.352;6.412;2022-08-30T02:54:24;8.10;;;6.55;;
51485;SDS011;37565;51.352;6.412;2022-08-30T02:56:53;7.07;;;5.63;;
51485;SDS011;37565;51.352;6.412;2022-08-30T02:59:21;7.90;;;6.68;;
51485;SDS011;37565;51.352;6.412;2022-08-30T03:01:49;10.20;;;6.18;;
51485;SDS011;37565;51.352;6.412;2022-08-30T03:04:18;7.50;;;5.90;;
51485;SDS011;37565;51.352;6.412;2022-08-30T03:06:52;8.57;;;5.88;;
51485;SDS011;37565;51.352;6.412;2022-08-30T03:09:21;9.85;;;5.97;;
51485;SDS011;37565;51.352;6.412;2022-08-30T03:11:49;11.95;;;6.88;;
51485;SDS011;37565;51.352;6.412;2022-08-30T03:14:17;6.50;;;5.45;;
51485;SDS011;37565;51.352;6.412;2022-08-30T03:16:45;8.07;;;6.40;;
51485;SDS011;37565;51.352;6.412;2022-08-30T03:19:16;7.45;;;5.72;;
51485;SDS011;37565;51.352;6.412;2022-08-30T03:21:55;7.53;;;5.72;;
51485;SDS011;37565;51.352;6.412;2022-08-30T03:24:23;7.07;;;5.72;;
51485;SDS011;37565;51.352;6.412;2022-08-30T03:26:52;5.85;;;5.25;;
51485;SDS011;37565;51.352;6.412;2022-08-30T03:29:20;7.55;;;5.30;;
51485;SDS011;37565;51.352;6.412;2022-08-30T03:31:48;7.53;;;5.82;;
51485;SDS011;37565;51.352;6.412;2022-08-30T03:34:18;7.60;;;5.45;;
51485;SDS011;37565;51.352;6.412;2022-08-30T03:36:47;6.35;;;5.15;;
51485;SDS011;37565;51.352;6.412;2022-08-30T03:39:16;5.75;;;4.70;;
51485;SDS011;37565;51.352;6.412;2022-08-30T03:41:44;6.55;;;4.93;;
51485;SDS011;37565;51.352;6.412;2022-08-30T03:44:12;5.55;;;4.97;;
51485;SDS011;37565;51.352;6.412;2022-08-30T03:46:40;6.55;;;5.38;;
51485;SDS011;37565;51.352;6.412;2022-08-30T03:49:08;8.27;;;4.90;;
51485;SDS011;37565;51.352;6.412;2022-08-30T03:51:36;6.13;;;4.70;;
51485;SDS011;37565;51.352;6.412;2022-08-30T03:54:04;6.47;;;4.72;;
51485;SDS011;37565;51.352;6.412;2022-08-30T03:56:34;4.68;;;4.25;;
51485;SDS011;37565;51.352;6.412;2022-08-30T03:59:02;5.03;;;4.50;;
51485;SDS011;37565;51.352;6.412;2022-08-30T04:01:31;6.47;;;4.53;;
51485;SDS011;37565;51.352;6.412;2022-08-30T04:04:00;6.20;;;5.05;;
51485;SDS011;37565;51.352;6.412;2022-08-30T04:06:28;5.70;;;5.10;;
51485;SDS011;37565;51.352;6.412;2022-08-30T04:08:56;6.53;;;5.32;;
51485;SDS011;37565;51.352;6.412;2022-08-30T04:11:24;5.10;;;4.32;;
51485;SDS011;37565;51.352;6.412;2022-08-30T04:13:54;6.45;;;4.60;;
51485;SDS011;37565;51.352;6.412;2022-08-30T04:16:22;9.25;;;4.60;;
51485;SDS011;37565;51.352;6.412;2022-08-30T04:18:51;6.03;;;4.80;;
51485;SDS011;37565;51.352;6.412;2022-08-30T04:21:19;5.82;;;4.32;;
51485;SDS011;37565;51.352;6.412;2022-08-30T04:23:47;4.85;;;4.20;;
51485;SDS011;37565;51.352;6.412;2022-08-30T04:26:15;5.47;;;4.72;;
51485;SDS011;37565;51.352;6.412;2022-08-30T04:28:43;6.18;;;4.50;;
51485;SDS011;37565;51.352;6.412;2022-08-30T04:31:15;7.30;;;4.40;;
51485;SDS011;37565;51.352;6.412;2022-08-30T04:33:45;6.13;;;4.73;;
51485;SDS011;37565;51.352;6.412;2022-08-30T04:36:13;4.50;;;4.10;;
51485;SDS011;37565;51.352;6.412;2022-08-30T04:38:41;4.57;;;4.18;;
51485;SDS011;37565;51.352;6.412;2022-08-30T04:41:10;4.60;;;4.13;;
51485;SDS011;37565;51.352;6.412;2022-08-30T04:43:41;5.22;;;4.68;;
51485;SDS011;37565;51.352;6.412;2022-08-30T04:46:11;4.40;;;4.00;;
51485;SDS011;37565;51.352;6.412;2022-08-30T04:48:41;4.15;;;3.60;;
51485;SDS011;37565;51.352;6.412;2022-08-30T04:51:11;4.40;;;3.92;;
51485;SDS011;37565;51.352;6.412;2022-08-30T04:53:40;4.97;;;4.45;;
51485;SDS011;37565;51.352;6.412;2022-08-30T04:56:10;4.90;;;3.97;;
51485;SDS011;37565;51.352;6.412;2022-08-30T04:58:41;4.75;;;3.92;;
51485;SDS011;37565;51.352;6.412;2022-08-30T05:01:11;4.78;;;3.95;;
51485;SDS011;37565;51.352;6.412;2022-08-30T05:03:45;4.50;;;4.10;;
51485;SDS011;37565;51.352;6.412;2022-08-30T05:06:13;3.50;;;3.17;;
51485;SDS011;37565;51.352;6.412;2022-08-30T05:08:42;6.95;;;4.22;;
51485;SDS011;37565;51.352;6.412;2022-08-30T05:11:12;4.32;;;3.67;;
51485;SDS011;37565;51.352;6.412;2022-08-30T05:13:41;4.85;;;3.25;;
51485;SDS011;37565;51.352;6.412;2022-08-30T05:16:09;4.00;;;3.60;;
51485;SDS011;37565;51.352;6.412;2022-08-30T05:18:42;4.10;;;3.42;;
51485;SDS011;37565;51.352;6.412;2022-08-30T05:21:13;4.53;;;3.38;;
51485;SDS011;37565;51.352;6.412;2022-08-30T05:23:43;4.68;;;3.30;;
51485;SDS011;37565;51.352;6.412;2022-08-30T05:26:11;3.42;;;3.10;;
51485;SDS011;37565;51.352;6.412;2022-08-30T05:28:41;6.22;;;2.65;;
51485;SDS011;37565;51.352;6.412;2022-08-30T05:31:12;7.47;;;2.50;;
51485;SDS011;37565;51.352;6.412;2022-08-30T05:33:42;8.02;;;2.80;;
51485;SDS011;37565;51.352;6.412;2022-08-30T05:36:13;7.03;;;2.53;;
51485;SDS011;37565;51.352;6.412;2022-08-30T05:38:43;8.45;;;2.30;;
51485;SDS011;37565;51.352;6.412;2022-08-30T05:41:11;4.10;;;2.17;;
51485;SDS011;37565;51.352;6.412;2022-08-30T05:43:40;7.68;;;2.13;;
51485;SDS011;37565;51.352;6.412;2022-08-30T05:46:10;4.47;;;2.00;;
51485;SDS011;37565;51.352;6.412;2022-08-30T05:48:40;2.58;;;1.83;;
51485;SDS011;37565;51.352;6.412;2022-08-30T05:51:09;3.33;;;1.70;;
51485;SDS011;37565;51.352;6.412;2022-08-30T05:53:40;5.00;;;2.25;;
51485;SDS011;37565;51.352;6.412;2022-08-30T05:56:10;3.22;;;1.92;;
51485;SDS011;37565;51.352;6.412;2022-08-30T05:58:40;5.93;;;1.98;;
51485;SDS011;37565;51.352;6.412;2022-08-30T06:01:17;6.18;;;1.92;;
51485;SDS011;37565;51.352;6.412;2022-08-30T06:03:46;8.00;;;2.20;;
51485;SDS011;37565;51.352;6.412;2022-08-30T06:06:14;3.38;;;1.73;;
51485;SDS011;37565;51.352;6.412;2022-08-30T06:08:43;3.05;;;1.77;;
51485;SDS011;37565;51.352;6.412;2022-08-30T06:11:18;5.15;;;1.80;;
51485;SDS011;37565;51.352;6.412;2022-08-30T06:13:47;5.10;;;1.98;;
51485;SDS011;37565;51.352;6.412;2022-08-30T06:16:17;5.13;;;1.92;;
51485;SDS011;37565;51.352;6.412;2022-08-30T06:18:46;4.75;;;2.20;;
51485;SDS011;37565;51.352;6.412;2022-08-30T06:21:16;4.50;;;1.90;;
51485;SDS011;37565;51.352;6.412;2022-08-30T06:23:45;10.63;;;2.17;;
51485;SDS011;37565;51.352;6.412;2022-08-30T06:26:13;5.20;;;1.40;;
51485;SDS011;37565;51.352;6.412;2022-08-30T06:28:42;3.40;;;2.20;;
51485;SDS011;37565;51.352;6.412;2022-08-30T06:31:11;5.20;;;2.00;;
51485;SDS011;37565;51.352;6.412;2022-08-30T06:33:41;5.22;;;1.90;;
51485;SDS011;37565;51.352;6.412;2022-08-30T06:36:12;2.88;;;1.70;;
51485;SDS011;37565;51.352;6.412;2022-08-30T06:38:41;6.03;;;1.92;;
51485;SDS011;37565;51.352;6.412;2022-08-30T06:41:12;5.75;;;2.10;;
51485;SDS011;37565;51.352;6.412;2022-08-30T06:43:43;6.43;;;2.10;;
51485;SDS011;37565;51.352;6.412;2022-08-30T06:46:15;2.85;;;2.03;;
51485;SDS011;37565;51.352;6.412;2022-08-30T06:48:45;3.08;;;1.88;;
51485;SDS011;37565;51.352;6.412;2022-08-30T06:51:14;3.30;;;2.33;;
51485;SDS011;37565;51.352;6.412;2022-08-30T06:53:45;6.28;;;2.40;;
51485;SDS011;37565;51.352;6.412;2022-08-30T06:56:16;8.23;;;2.35;;
51485;SDS011;37565;51.352;6.412;2022-08-30T06:58:44;5.38;;;1.92;;
51485;SDS011;37565;51.352;6.412;2022-08-30T07:01:17;5.45;;;1.80;;
51485;SDS011;37565;51.352;6.412;2022-08-30T07:03:47;3.67;;;2.08;;
51485;SDS011;37565;51.352;6.412;2022-08-30T07:06:18;3.80;;;2.15;;
51485;SDS011;37565;51.352;6.412;2022-08-30T07:08:47;7.85;;;2.55;;
51485;SDS011;37565;51.352;6.412;2022-08-30T07:11:26;7.40;;;2.28;;
51485;SDS011;37565;51.352;6.412;2022-08-30T07:13:56;6.53;;;2.35;;
51485;SDS011;37565;51.352;6.412;2022-08-30T07:16:27;6.05;;;2.25;;
51485;SDS011;37565;51.352;6.412;2022-08-30T07:18:55;5.50;;;2.47;;
51485;SDS011;37565;51.352;6.412;2022-08-30T07:21:24;3.70;;;2.00;;
51485;SDS011;37565;51.352;6.412;2022-08-30T07:23:54;7.10;;;2.20;;
51485;SDS011;37565;51.352;6.412;2022-08-30T07:26:28;2.97;;;1.95;;
51485;SDS011;37565;51.352;6.412;2022-08-30T07:28:59;6.55;;;2.47;;
51485;SDS011;37565;51.352;6.412;2022-08-30T07:31:27;5.35;;;2.10;;
51485;SDS011;37565;51.352;6.412;2022-08-30T07:33:56;3.88;;;1.88;;
51485;SDS011;37565;51.352;6.412;2022-08-30T07:36:24;7.35;;;2.70;;
51485;SDS011;37565;51.352;6.412;2022-08-30T07:38:52;2.97;;;1.70;;
51485;SDS011;37565;51.352;6.412;2022-08-30T07:41:20;2.33;;;1.60;;
51485;SDS011;37565;51.352;6.412;2022-08-30T07:43:51;6.97;;;1.83;;
51485;SDS011;37565;51.352;6.412;2022-08-30T07:46:20;3.35;;;1.73;;
51485;SDS011;37565;51.352;6.412;2022-08-30T07:48:49;3.38;;;1.60;;
51485;SDS011;37565;51.352;6.412;2022-08-30T07:51:20;4.38;;;1.70;;
51485;SDS011;37565;51.352;6.412;2022-08-30T07:53:50;5.93;;;1.80;;
51485;SDS011;37565;51.352;6.412;2022-08-30T07:56:18;2.38;;;1.52;;
51485;SDS011;37565;51.352;6.412;2022-08-30T07:58:46;2.75;;;1.73;;
51485;SDS011;37565;51.352;6.412;2022-08-30T08:01:16;1.65;;;1.33;;
51485;SDS011;37565;51.352;6.412;2022-08-30T08:03:48;2.40;;;1.63;;
51485;SDS011;37565;51.352;6.412;2022-08-30T08:06:18;5.05;;;2.00;;
51485;SDS011;37565;51.352;6.412;2022-08-30T08:08:48;3.13;;;1.80;;
51485;SDS011;37565;51.352;6.412;2022-08-30T08:11:19;5.47;;;1.75;;
51485;SDS011;37565;51.352;6.412;2022-08-30T08:13:50;2.90;;;1.70;;
51485;SDS011;37565;51.352;6.412;2022-08-30T08:16:21;4.15;;;1.77;;
51485;SDS011;37565;51.352;6.412;2022-08-30T08:18:50;5.95;;;1.35;;
51485;SDS011;37565;51.352;6.412;2022-08-30T08:21:19;1.55;;;1.30;;
51485;SDS011;37565;51.352;6.412;2022-08-30T08:23:47;2.55;;;1.55;;
51485;SDS011;37565;51.352;6.412;2022-08-30T08:26:15;4.50;;;1.27;;
51485;SDS011;37565;51.352;6.412;2022-08-30T08:28:43;2.92;;;1.45;;
51485;SDS011;37565;51.352;6.412;2022-08-30T08:31:14;7.22;;;2.08;;
51485;SDS011;37565;51.352;6.412;2022-08-30T08:33:44;3.53;;;1.40;;
51485;SDS011;37565;51.352;6.412;2022-08-30T08:36:14;1.73;;;1.52;;
51485;SDS011;37565;51.352;6.412;2022-08-30T08:38:43;4.13;;;1.50;;
51485;SDS011;37565;51.352;6.412;2022-08-30T08:41:13;4.28;;;1.70;;
51485;SDS011;37565;51.352;6.412;2022-08-30T08:43:57;5.63;;;1.52;;
51485;SDS011;37565;51.352;6.412;2022-08-30T08:46:26;4.78;;;1.77;;
51485;SDS011;37565;51.352;6.412;2022-08-30T08:49:02;5.50;;;1.80;;
51485;SDS011;37565;51.352;6.412;2022-08-30T08:51:33;3.45;;;1.70;;
51485;SDS011;37565;51.352;6.412;2022-08-30T08:54:23;4.32;;;1.90;;
51485;SDS011;37565;51.352;6.412;2022-08-30T08:56:57;3.40;;;1.30;;
51485;SDS011;37565;51.352;6.412;2022-08-30T08:59:28;4.45;;;1.42;;
51485;SDS011;37565;51.352;6.412;2022-08-30T09:01:57;2.47;;;1.40;;
51485;SDS011;37565;51.352;6.412;2022-08-30T09:04:31;2.97;;;1.40;;
51485;SDS011;37565;51.352;6.412;2022-08-30T09:07:03;2.55;;;1.58;;
51485;SDS011;37565;51.352;6.412;2022-08-30T09:09:38;2.95;;;1.35;;
51485;SDS011;37565;51.352;6.412;2022-08-30T09:12:09;2.83;;;1.85;;
51485;SDS011;37565;51.352;6.412;2022-08-30T09:14:39;4.03;;;1.50;;
51485;SDS011;37565;51.352;6.412;2022-08-30T09:17:12;2.72;;;1.13;;
51485;SDS011;37565;51.352;6.412;2022-08-30T09:19:55;3.53;;;1.60;;
51485;SDS011;37565;51.352;6.412;2022-08-30T09:22:30;2.10;;;1.58;;
51485;SDS011;37565;51.352;6.412;2022-08-30T09:25:05;3.13;;;1.33;;
51485;SDS011;37565;51.352;6.412;2022-08-30T09:27:36;1.98;;;1.50;;
51485;SDS011;37565;51.352;6.412;2022-08-30T09:30:06;2.13;;;1.05;;
51485;SDS011;37565;51.352;6.412;2022-08-30T09:32:41;2.63;;;1.10;;
51485;SDS011;37565;51.352;6.412;2022-08-30T09:35:13;1.52;;;1.40;;
51485;SDS011;37565;51.352;6.412;2022-08-30T09:37:46;4.18;;;1.30;;
51485;SDS011;37565;51.352;6.412;2022-08-30T09:40:21;3.65;;;1.40;;
51485;SDS011;37565;51.352;6.412;2022-08-30T09:45:47;6.43;;;2.00;;
51485;SDS011;37565;51.352;6.412;2022-08-30T09:48:31;3.42;;;2.03;;
51485;SDS011;37565;51.352;6.412;2022-08-30T09:51:13;6.30;;;1.98;;
51485;SDS011;37565;51.352;6.412;2022-08-30T09:54:02;10.25;;;2.20;;
51485;SDS011;37565;51.352;6.412;2022-08-30T09:56:49;6.07;;;1.77;;
51485;SDS011;37565;51.352;6.412;2022-08-30T09:59:25;5.93;;;2.05;;
51485;SDS011;37565;51.352;6.412;2022-08-30T10:02:05;4.82;;;1.88;;
51485;SDS011;37565;51.352;6.412;2022-08-30T10:04:48;6.65;;;1.98;;
51485;SDS011;37565;51.352;6.412;2022-08-30T10:07:29;2.10;;;1.67;;
51485;SDS011;37565;51.352;6.412;2022-08-30T10:10:09;5.10;;;2.00;;
51485;SDS011;37565;51.352;6.412;2022-08-30T10:12:45;13.88;;;1.80;;
51485;SDS011;37565;51.352;6.412;2022-08-30T10:15:22;6.93;;;1.58;;
51485;SDS011;37565;51.352;6.412;2022-08-30T10:17:59;8.75;;;2.22;;
51485;SDS011;37565;51.352;6.412;2022-08-30T10:20:35;3.78;;;1.77;;
51485;SDS011;37565;51.352;6.412;2022-08-30T10:23:11;4.00;;;1.63;;
51485;SDS011;37565;51.352;6.412;2022-08-30T10:25:48;3.30;;;1.80;;
51485;SDS011;37565;51.352;6.412;2022-08-30T10:28:21;5.18;;;1.60;;
51485;SDS011;37565;51.352;6.412;2022-08-30T10:30:57;4.13;;;1.58;;
51485;SDS011;37565;51.352;6.412;2022-08-30T10:33:31;6.68;;;1.63;;
51485;SDS011;37565;51.352;6.412;2022-08-30T10:36:08;5.28;;;1.40;;
51485;SDS011;37565;51.352;6.412;2022-08-30T10:38:40;3.72;;;1.83;;
51485;SDS011;37565;51.352;6.412;2022-08-30T10:41:18;2.85;;;1.90;;
51485;SDS011;37565;51.352;6.412;2022-08-30T10:43:52;8.52;;;1.55;;
51485;SDS011;37565;51.352;6.412;2022-08-30T10:46:28;5.07;;;1.65;;
51485;SDS011;37565;51.352;6.412;2022-08-30T10:49:01;8.57;;;1.95;;
51485;SDS011;37565;51.352;6.412;2022-08-30T10:51:31;3.40;;;1.63;;
51485;SDS011;37565;51.352;6.412;2022-08-30T10:54:11;4.57;;;1.35;;
51485;SDS011;37565;51.352;6.412;2022-08-30T10:56:44;4.60;;;1.80;;
51485;SDS011;37565;51.352;6.412;2022-08-30T10:59:16;6.60;;;1.83;;
51485;SDS011;37565;51.352;6.412;2022-08-30T11:01:50;11.30;;;1.83;;
51485;SDS011;37565;51.352;6.412;2022-08-30T11:07:43;3.10;;;1.42;;
51485;SDS011;37565;51.352;6.412;2022-08-30T11:10:23;9.30;;;1.55;;
51485;SDS011;37565;51.352;6.412;2022-08-30T11:13:03;2.15;;;1.30;;
51485;SDS011;37565;51.352;6.412;2022-08-30T11:15:36;3.38;;;1.33;;
51485;SDS011;37565;51.352;6.412;2022-08-30T11:18:22;5.55;;;1.30;;
51485;SDS011;37565;51.352;6.412;2022-08-30T11:23:57;6.28;;;2.20;;
51485;SDS011;37565;51.352;6.412;2022-08-30T11:29:37;5.80;;;1.73;;
51485;SDS011;37565;51.352;6.412;2022-08-30T11:35:39;8.88;;;2.42;;
51485;SDS011;37565;51.352;6.412;2022-08-30T11:38:17;3.17;;;1.63;;
51485;SDS011;37565;51.352;6.412;2022-08-30T11:41:07;8.52;;;1.48;;
51485;SDS011;37565;51.352;6.412;2022-08-30T11:43:51;4.43;;;1.38;;
51485;SDS011;37565;51.352;6.412;2022-08-30T11:46:34;4.68;;;1.45;;
51485;SDS011;37565;51.352;6.412;2022-08-30T11:49:21;14.25;;;1.55;;
51485;SDS011;37565;51.352;6.412;2022-08-30T11:52:19;2.60;;;1.50;;
51485;SDS011;37565;51.352;6.412;2022-08-30T11:55:16;3.47;;;1.42;;
51485;SDS011;37565;51.352;6.412;2022-08-30T11:58:10;12.25;;;1.90;;
51485;SDS011;37565;51.352;6.412;2022-08-30T12:01:11;7.07;;;2.00;;
51485;SDS011;37565;51.352;6.412;2022-08-30T12:04:03;4.18;;;1.42;;
51485;SDS011;37565;51.352;6.412;2022-08-30T12:06:45;4.97;;;1.33;;
51485;SDS011;37565;51.352;6.412;2022-08-30T12:15:27;6.63;;;1.60;;
51485;SDS011;37565;51.352;6.412;2022-08-30T12:18:12;7.43;;;1.73;;
51485;SDS011;37565;51.352;6.412;2022-08-30T12:23:33;5.63;;;1.77;;
51485;SDS011;37565;51.352;6.412;2022-08-30T12:26:11;9.27;;;1.70;;
51485;SDS011;37565;51.352;6.412;2022-08-30T12:28:45;4.82;;;1.30;;
51485;SDS011;37565;51.352;6.412;2022-08-30T12:31:18;18.05;;;1.90;;
51485;SDS011;37565;51.352;6.412;2022-08-30T12:33:52;11.55;;;1.80;;
51485;SDS011;37565;51.352;6.412;2022-08-30T12:36:30;5.93;;;1.67;;
51485;SDS011;37565;51.352;6.412;2022-08-30T12:39:05;5.63;;;2.05;;
51485;SDS011;37565;51.352;6.412;2022-08-30T12:41:38;13.43;;;1.77;;
51485;SDS011;37565;51.352;6.412;2022-08-30T12:44:11;8.18;;;1.77;;
51485;SDS011;37565;51.352;6.412;2022-08-30T12:46:41;12.18;;;2.08;;
51485;SDS011;37565;51.352;6.412;2022-08-30T12:49:13;10.10;;;2.58;;
51485;SDS011;37565;51.352;6.412;2022-08-30T12:51:43;10.93;;;2.20;;
51485;SDS011;37565;51.352;6.412;2022-08-30T12:54:14;8.10;;;2.38;;
51485;SDS011;37565;51.352;6.412;2022-08-30T12:56:58;15.45;;;3.13;;
51485;SDS011;37565;51.352;6.412;2022-08-30T12:59:49;15.50;;;3.35;;
51485;SDS011;37565;51.352;6.412;2022-08-30T13:02:25;22.35;;;3.22;;
51485;SDS011;37565;51.352;6.412;2022-08-30T13:04:56;16.05;;;3.88;;
51485;SDS011;37565;51.352;6.412;2022-08-30T13:07:29;19.05;;;3.58;;
51485;SDS011;37565;51.352;6.412;2022-08-30T13:09:59;16.83;;;3.67;;
51485;SDS011;37565;51.352;6.412;2022-08-30T13:12:37;18.67;;;3.90;;
51485;SDS011;37565;51.352;6.412;2022-08-30T13:15:10;15.63;;;3.60;;
51485;SDS011;37565;51.352;6.412;2022-08-30T13:17:41;12.10;;;3.83;;
51485;SDS011;37565;51.352;6.412;2022-08-30T13:20:22;19.85;;;4.40;;
51485;SDS011;37565;51.352;6.412;2022-08-30T13:22:59;16.33;;;3.30;;
51485;SDS011;37565;51.352;6.412;2022-08-30T13:25:30;17.77;;;4.53;;
51485;SDS011;37565;51.352;6.412;2022-08-30T13:27:59;17.55;;;3.53;;
51485;SDS011;37565;51.352;6.412;2022-08-30T13:30:28;20.02;;;3.72;;
51485;SDS011;37565;51.352;6.412;2022-08-30T13:32:56;18.38;;;4.10;;
51485;SDS011;37565;51.352;6.412;2022-08-30T13:35:29;16.98;;;3.70;;
51485;SDS011;37565;51.352;6.412;2022-08-30T13:37:59;18.52;;;3.97;;
51485;SDS011;37565;51.352;6.412;2022-08-30T13:40:29;13.75;;;4.45;;
51485;SDS011;37565;51.352;6.412;2022-08-30T13:42:57;20.40;;;3.70;;
51485;SDS011;37565;51.352;6.412;2022-08-30T13:45:25;18.55;;;3.63;;
51485;SDS011;37565;51.352;6.412;2022-08-30T13:48:09;15.15;;;3.42;;
51485;SDS011;37565;51.352;6.412;2022-08-30T13:50:44;12.32;;;3.65;;
51485;SDS011;37565;51.352;6.412;2022-08-30T13:53:12;9.60;;;2.80;;
51485;SDS011;37565;51.352;6.412;2022-08-30T13:55:40;12.30;;;3.20;;
51485;SDS011;37565;51.352;6.412;2022-08-30T13:58:09;12.27;;;3.05;;
51485;SDS011;37565;51.352;6.412;2022-08-30T14:00:39;13.95;;;3.85;;
51485;SDS011;37565;51.352;6.412;2022-08-30T14:03:08;12.15;;;3.15;;
51485;SDS011;37565;51.352;6.412;2022-08-30T14:05:36;16.08;;;3.22;;
51485;SDS011;37565;51.352;6.412;2022-08-30T14:08:18;11.32;;;2.83;;
51485;SDS011;37565;51.352;6.412;2022-08-30T14:11:08;11.60;;;3.13;;
51485;SDS011;37565;51.352;6.412;2022-08-30T14:13:38;13.82;;;3.75;;
51485;SDS011;37565;51.352;6.412;2022-08-30T14:16:28;12.02;;;3.28;;
51485;SDS011;37565;51.352;6.412;2022-08-30T14:18:57;10.45;;;3.05;;
51485;SDS011;37565;51.352;6.412;2022-08-30T14:21:26;14.70;;;3.47;;
51485;SDS011;37565;51.352;6.412;2022-08-30T14:23:56;12.43;;;3.75;;
51485;SDS011;37565;51.352;6.412;2022-08-30T14:26:27;16.40;;;3.70;;
51485;SDS011;37565;51.352;6.412;2022-08-30T14:28:58;13.50;;;3.53;;
51485;SDS011;37565;51.352;6.412;2022-08-30T14:31:26;11.65;;;3.15;;
51485;SDS011;37565;51.352;6.412;2022-08-30T14:33:58;14.98;;;3.28;;
51485;SDS011;37565;51.352;6.412;2022-08-30T14:36:26;11.00;;;3.75;;
51485;SDS011;37565;51.352;6.412;2022-08-30T14:38:54;11.48;;;3.45;;
51485;SDS011;37565;51.352;6.412;2022-08-30T14:41:24;10.57;;;3.03;;
51485;SDS011;37565;51.352;6.412;2022-08-30T14:43:52;12.52;;;3.58;;
51485;SDS011;37565;51.352;6.412;2022-08-30T14:46:20;10.23;;;3.13;;
51485;SDS011;37565;51.352;6.412;2022-08-30T14:48:51;12.60;;;3.53;;
51485;SDS011;37565;51.352;6.412;2022-08-30T14:51:21;12.32;;;3.22;;
51485;SDS011;37565;51.352;6.412;2022-08-30T14:53:50;14.25;;;3.40;;
51485;SDS011;37565;51.352;6.412;2022-08-30T14:56:19;9.73;;;3.17;;
51485;SDS011;37565;51.352;6.412;2022-08-30T14:58:51;13.07;;;3.20;;
51485;SDS011;37565;51.352;6.412;2022-08-30T15:01:25;15.35;;;3.65;;
51485;SDS011;37565;51.352;6.412;2022-08-30T15:03:54;8.68;;;2.97;;
51485;SDS011;37565;51.352;6.412;2022-08-30T15:06:23;9.50;;;3.55;;
51485;SDS011;37565;51.352;6.412;2022-08-30T15:08:51;10.60;;;2.75;;
51485;SDS011;37565;51.352;6.412;2022-08-30T15:11:20;8.32;;;2.95;;
51485;SDS011;37565;51.352;6.412;2022-08-30T15:13:52;9.25;;;3.53;;
51485;SDS011;37565;51.352;6.412;2022-08-30T15:16:22;9.38;;;2.88;;
51485;SDS011;37565;51.352;6.412;2022-08-30T15:18:52;11.85;;;3.20;;
51485;SDS011;37565;51.352;6.412;2022-08-30T15:21:21;7.78;;;3.00;;
51485;SDS011;37565;51.352;6.412;2022-08-30T15:23:50;9.93;;;3.00;;
51485;SDS011;37565;51.352;6.412;2022-08-30T15:26:18;10.15;;;3.63;;
51485;SDS011;37565;51.352;6.412;2022-08-30T15:28:46;15.55;;;3.35;;
51485;SDS011;37565;51.352;6.412;2022-08-30T15:31:16;7.78;;;2.88;;
51485;SDS011;37565;51.352;6.412;2022-08-30T15:33:45;8.18;;;2.97;;
51485;SDS011;37565;51.352;6.412;2022-08-30T15:36:15;11.57;;;3.13;;